Solomon, Arizona
Current Conditions -  °F | °C
As of 10:51 PM on Saturday 25 Oct 2014 (Local Time) from KSAD Reporting Station
Clear Clear  
Wind Chill: 66°   Ceiling: Unl
Heat Index: 66°   Visibility: 10mi
Dew Point: 49°   Wind: 5mph
Humidity: 54%   Direction: 60°ENE
Pressure: 30.05"   Gusts: NA
Location:  32.82°N, 109.63°W
Report Text: KSAD 260551Z AUTO 06004KT 10SM CLR 19/09 A3005 RMK AO2 SLP134 T01890094 10300 20189 50003
Loading
Personal Weather Stations






























Interactive Weather Map
Tropical Storm Tracking
New forecast layout! Learn more

10-Day Weather Forecast

Advertisements
Track Severe Weather on mobile